CDG weather

Charles de Gaulle International Airport
Paris, Île-de-France, France

Public forecast

Using degrees Celsius for public forecast. Weather courtesy of forecast.io.

METAR (pilot weather report)

Retrieved 2019/03/24 22:30 UTC (30 minutes ago):

LFPG 242230Z 33007KT CAVOK 06/02 Q1028 NOSIG

TAF (pilot weather forecast)

Retrieved 2019/03/24 18:21 UTC (5 hours ago):

TAF LFPG 241700Z 2418/2524 01008KT CAVOK TX12/2514Z TN03/2505Z PROB30 TEMPO 2508/2510 BKN014 TEMPO 2514/2516 36015G25KT